createdAt,value
2017-08-24T00:01:40.000Z,22.7
2017-08-24T00:11:40.000Z,22.7
2017-08-24T00:21:40.000Z,22.7
2017-08-24T00:31:40.000Z,22.7
2017-08-24T00:41:40.000Z,22.8
2017-08-24T00:51:40.000Z,22.8
2017-08-24T01:01:40.000Z,22.8
2017-08-24T01:11:40.000Z,22.7
2017-08-24T01:21:40.000Z,22.7
2017-08-24T01:31:40.000Z,22.8
2017-08-24T01:41:40.000Z,22.8
2017-08-24T01:51:40.000Z,22.8
2017-08-24T02:01:40.000Z,22.8
2017-08-24T02:11:41.000Z,22.8
2017-08-24T02:21:41.000Z,23
2017-08-24T02:31:41.000Z,22.8
2017-08-24T02:41:41.000Z,22.8
2017-08-24T02:51:41.000Z,22.8
2017-08-24T03:01:41.000Z,22.8
2017-08-24T03:11:41.000Z,22.8
2017-08-24T03:21:41.000Z,22.8
2017-08-24T03:31:41.000Z,22.9
2017-08-24T03:41:41.000Z,22.8
2017-08-24T03:51:41.000Z,22.8
2017-08-24T04:01:41.000Z,22.8
2017-08-24T04:11:41.000Z,22.8
2017-08-24T04:21:41.000Z,22.8
2017-08-24T04:31:41.000Z,22.8
2017-08-24T04:41:41.000Z,22.8
2017-08-24T04:51:41.000Z,22.8
2017-08-24T05:01:41.000Z,22.8
2017-08-24T05:11:41.000Z,22.8
2017-08-24T05:21:41.000Z,22.8
2017-08-24T05:31:41.000Z,22.8
2017-08-24T05:41:41.000Z,22.8
2017-08-24T05:51:41.000Z,22.6
2017-08-24T06:01:41.000Z,22.7
2017-08-24T06:11:41.000Z,22.6
2017-08-24T06:21:41.000Z,22.6
2017-08-24T06:31:41.000Z,22.6
2017-08-24T06:41:41.000Z,22.6
2017-08-24T06:51:41.000Z,22.5
2017-08-24T07:01:41.000Z,22.6
2017-08-24T07:11:41.000Z,22.6
2017-08-24T07:21:41.000Z,22.5
2017-08-24T07:31:41.000Z,22.5
2017-08-24T07:41:41.000Z,22.5
2017-08-24T07:51:41.000Z,22.6
2017-08-24T08:01:41.000Z,22.7
2017-08-24T08:11:41.000Z,22.7
2017-08-24T08:21:41.000Z,22.7
2017-08-24T08:31:41.000Z,22.7
2017-08-24T08:41:43.000Z,22.8
2017-08-24T08:51:42.000Z,23
2017-08-24T09:01:42.000Z,23
2017-08-24T09:11:42.000Z,23.1
2017-08-24T09:21:42.000Z,23.1
2017-08-24T09:31:44.000Z,23.1
2017-08-24T09:41:42.000Z,22.8
2017-08-24T09:51:42.000Z,23.1
2017-08-24T10:01:42.000Z,23
2017-08-24T10:11:42.000Z,23.2
2017-08-24T10:21:42.000Z,23
2017-08-24T10:31:42.000Z,23.2
2017-08-24T10:41:42.000Z,23.1
2017-08-24T10:51:42.000Z,23.1
2017-08-24T11:01:42.000Z,23
2017-08-24T11:11:42.000Z,23.1
2017-08-24T11:21:42.000Z,23
2017-08-24T11:31:42.000Z,23
2017-08-24T11:41:42.000Z,23
2017-08-24T11:51:42.000Z,23
2017-08-24T12:01:42.000Z,23.1
2017-08-24T12:11:42.000Z,23.1
2017-08-24T12:21:42.000Z,23.1
2017-08-24T12:31:43.000Z,23.1
2017-08-24T12:41:42.000Z,23.2
2017-08-24T13:01:42.000Z,23.1
2017-08-24T13:11:42.000Z,23.1
2017-08-24T13:21:42.000Z,23.1
2017-08-24T13:31:43.000Z,23.1
2017-08-24T13:41:42.000Z,23.1
2017-08-24T13:51:42.000Z,23.1
2017-08-24T14:01:42.000Z,23.1
2017-08-24T14:11:42.000Z,23.1
2017-08-24T14:21:42.000Z,23.1
2017-08-24T14:31:42.000Z,23.1
2017-08-24T14:41:42.000Z,23.2
2017-08-24T14:51:42.000Z,23.1
2017-08-24T15:01:43.000Z,23.2
2017-08-24T15:11:43.000Z,23.1
2017-08-24T15:21:43.000Z,23.1
2017-08-24T15:31:43.000Z,23.1
2017-08-24T15:41:43.000Z,23.1
2017-08-24T15:51:43.000Z,23.1
2017-08-24T16:01:43.000Z,23.1
2017-08-24T16:11:43.000Z,23.1
2017-08-24T16:21:43.000Z,23.1
2017-08-24T16:31:43.000Z,23.1
2017-08-24T16:41:43.000Z,23.1
2017-08-24T16:51:43.000Z,23.1
2017-08-24T17:01:43.000Z,23.1
2017-08-24T17:21:46.000Z,23.1
2017-08-24T17:31:43.000Z,23.1
2017-08-24T17:41:45.000Z,23.1
2017-08-24T17:51:43.000Z,23.1
2017-08-24T18:01:43.000Z,23.2
2017-08-24T18:11:43.000Z,23.2
2017-08-24T18:21:43.000Z,23.2
2017-08-24T18:31:45.000Z,23.2
2017-08-24T18:41:44.000Z,23.1
2017-08-24T18:51:43.000Z,23.1
2017-08-24T19:01:43.000Z,23.1
2017-08-24T19:11:43.000Z,23.1
2017-08-24T19:21:43.000Z,23.1
2017-08-24T19:31:43.000Z,23
2017-08-24T19:41:43.000Z,23.1
2017-08-24T19:51:43.000Z,23
2017-08-24T20:01:44.000Z,23.2
2017-08-24T20:11:43.000Z,23.2
2017-08-24T20:21:43.000Z,23.1
2017-08-24T20:31:43.000Z,23.1
2017-08-24T20:41:43.000Z,23.1
2017-08-24T21:01:43.000Z,23.1
2017-08-24T21:11:43.000Z,23.1
2017-08-24T21:21:44.000Z,23.2
2017-08-24T21:31:44.000Z,23.2
2017-08-24T21:41:44.000Z,23.2
2017-08-24T21:51:45.000Z,23.2
2017-08-24T22:01:44.000Z,23.1
2017-08-24T22:11:44.000Z,23.2
2017-08-24T22:21:44.000Z,23.2
2017-08-24T22:31:45.000Z,23.3
2017-08-24T22:41:45.000Z,23.2
2017-08-24T22:51:44.000Z,23
2017-08-24T23:01:45.000Z,22.9
2017-08-24T23:11:44.000Z,22.9
2017-08-24T23:21:44.000Z,22.8
2017-08-24T23:31:44.000Z,22.8
2017-08-24T23:41:44.000Z,22.8
